createdAt,value
2023-03-11T00:00:21.607Z,1.85
2023-03-11T00:02:50.553Z,2.17
2023-03-11T00:05:20.022Z,2.17
2023-03-11T00:07:46.886Z,1.80
2023-03-11T00:10:21.808Z,1.75
2023-03-11T00:12:48.505Z,1.75
2023-03-11T00:15:15.278Z,1.60
2023-03-11T00:17:42.011Z,1.85
2023-03-11T00:20:15.357Z,1.67
2023-03-11T00:22:41.990Z,1.77
2023-03-11T00:25:10.936Z,1.17
2023-03-11T00:27:37.627Z,1.17
2023-03-11T00:30:05.285Z,1.13
2023-03-11T00:32:32.000Z,1.20
2023-03-11T00:34:58.706Z,1.23
2023-03-11T00:37:25.352Z,1.40
2023-03-11T00:42:18.515Z,1.48
2023-03-11T00:47:12.370Z,1.00
2023-03-11T00:49:39.431Z,1.23
2023-03-11T00:52:06.634Z,1.02
2023-03-11T00:54:33.412Z,1.20
2023-03-11T00:57:00.172Z,1.30
2023-03-11T00:59:26.853Z,1.13
2023-03-11T01:01:53.469Z,0.82
2023-03-11T01:06:46.784Z,0.90
2023-03-11T01:11:40.075Z,1.10
2023-03-11T01:14:06.772Z,1.15
2023-03-11T01:16:33.550Z,1.15
2023-03-11T01:19:00.362Z,1.40
2023-03-11T01:21:27.104Z,1.10
2023-03-11T01:23:53.817Z,1.20
2023-03-11T01:26:20.540Z,1.15
2023-03-11T01:28:48.090Z,1.35
2023-03-11T01:31:14.798Z,1.20
2023-03-11T01:33:41.582Z,1.40
2023-03-11T01:36:08.660Z,0.95
2023-03-11T01:38:35.525Z,1.23
2023-03-11T01:41:02.235Z,1.00
2023-03-11T01:43:44.200Z,0.90
2023-03-11T01:46:13.962Z,1.33
2023-03-11T01:48:45.075Z,1.30
2023-03-11T01:51:12.012Z,1.23
2023-03-11T01:53:39.391Z,1.20
2023-03-11T01:56:06.634Z,1.02
2023-03-11T01:58:39.360Z,1.27
2023-03-11T02:01:07.661Z,1.60
2023-03-11T02:03:39.492Z,1.20
2023-03-11T02:06:14.087Z,1.17
2023-03-11T02:08:42.360Z,1.60
2023-03-11T02:11:30.628Z,1.58
2023-03-11T02:14:03.086Z,0.93
2023-03-11T02:16:29.842Z,1.45
2023-03-11T02:19:00.462Z,1.30
2023-03-11T02:21:30.175Z,1.38
2023-03-11T02:24:24.226Z,1.33
2023-03-11T02:27:05.248Z,1.65
2023-03-11T02:29:33.829Z,1.27
2023-03-11T02:32:06.633Z,1.77
2023-03-11T02:34:35.554Z,1.33
2023-03-11T02:37:09.143Z,1.58
2023-03-11T02:39:47.587Z,1.60
2023-03-11T02:42:31.888Z,2.47
2023-03-11T02:45:09.081Z,1.55
2023-03-11T02:47:37.618Z,1.58
2023-03-11T02:50:05.764Z,1.42
2023-03-11T02:52:34.290Z,1.55
2023-03-11T02:55:01.271Z,1.85
2023-03-11T02:57:27.905Z,1.20
2023-03-11T03:02:21.205Z,1.15
2023-03-11T03:04:47.875Z,1.60
2023-03-11T03:07:14.582Z,1.70
2023-03-11T03:09:41.314Z,0.95
2023-03-11T03:12:08.104Z,1.92
2023-03-11T03:14:34.791Z,1.40
2023-03-11T03:17:01.549Z,1.48
2023-03-11T03:19:28.242Z,1.00
2023-03-11T03:24:21.659Z,1.48
2023-03-11T03:26:48.351Z,1.10
2023-03-11T03:31:41.705Z,1.30
2023-03-11T03:34:08.870Z,1.17
2023-03-11T03:36:35.500Z,1.10
2023-03-11T03:41:28.875Z,1.35
2023-03-11T03:43:55.566Z,1.05
2023-03-11T03:46:22.640Z,1.77
2023-03-11T03:48:49.296Z,1.25
2023-03-11T03:51:16.337Z,0.70
2023-03-11T03:53:43.286Z,0.90
2023-03-11T03:56:13.336Z,1.45
2023-03-11T03:58:40.007Z,1.15
2023-03-11T04:01:07.437Z,0.90
2023-03-11T04:03:35.241Z,1.33
2023-03-11T04:06:10.949Z,1.40
2023-03-11T04:08:38.108Z,1.05
2023-03-11T04:11:04.934Z,1.10
2023-03-11T04:13:31.840Z,1.40
2023-03-11T04:15:58.691Z,1.17
2023-03-11T04:18:25.429Z,1.08
2023-03-11T04:20:52.093Z,1.35
2023-03-11T04:25:45.495Z,1.38
2023-03-11T04:28:12.203Z,1.48
2023-03-11T04:30:40.115Z,1.48
2023-03-11T04:33:06.851Z,1.70
2023-03-11T04:35:33.655Z,1.55
2023-03-11T04:38:01.025Z,1.27
2023-03-11T04:40:28.323Z,1.50
2023-03-11T04:42:55.080Z,1.38
2023-03-11T04:45:21.722Z,1.67
2023-03-11T04:47:51.753Z,2.22
2023-03-11T04:50:18.938Z,1.63
2023-03-11T04:52:46.758Z,1.50
2023-03-11T04:55:14.781Z,1.95
2023-03-11T04:57:42.352Z,1.42
2023-03-11T05:00:15.680Z,1.80
2023-03-11T05:02:42.987Z,1.70
2023-03-11T05:05:10.194Z,1.50
2023-03-11T05:07:37.053Z,1.77
2023-03-11T05:10:04.839Z,1.80
2023-03-11T05:12:31.489Z,2.03
2023-03-11T05:14:58.174Z,1.95
2023-03-11T05:17:24.995Z,1.85
2023-03-11T05:19:53.711Z,1.23
2023-03-11T05:22:21.151Z,1.65
2023-03-11T05:24:48.141Z,1.45
2023-03-11T05:27:17.930Z,1.42
2023-03-11T05:29:45.158Z,1.75
2023-03-11T05:32:13.545Z,1.77
2023-03-11T05:34:40.668Z,1.40
2023-03-11T05:37:07.771Z,1.60
2023-03-11T05:39:34.732Z,1.88
2023-03-11T05:42:01.420Z,1.70
2023-03-11T05:44:28.197Z,1.70
2023-03-11T05:46:54.918Z,1.77
2023-03-11T05:49:22.032Z,1.63
2023-03-11T05:51:50.206Z,1.65
2023-03-11T05:54:17.412Z,1.40
2023-03-11T05:56:45.643Z,1.73
2023-03-11T05:59:16.357Z,1.30
2023-03-11T06:01:43.910Z,1.67
2023-03-11T06:04:11.280Z,1.27
2023-03-11T06:06:40.428Z,1.80
2023-03-11T06:09:07.754Z,1.42
2023-03-11T06:11:34.433Z,2.15
2023-03-11T06:14:01.054Z,1.20
2023-03-11T06:18:54.689Z,1.33
2023-03-11T06:21:23.882Z,1.52
2023-03-11T06:23:50.735Z,1.10
2023-03-11T06:26:20.258Z,1.30
2023-03-11T06:28:48.205Z,1.42
2023-03-11T06:31:17.786Z,1.60
2023-03-11T06:33:44.748Z,1.40
2023-03-11T06:36:13.725Z,1.55
2023-03-11T06:38:41.167Z,1.80
2023-03-11T06:41:08.321Z,1.40
2023-03-11T06:43:36.356Z,1.40
2023-03-11T06:46:09.747Z,1.27
2023-03-11T06:48:36.551Z,1.23
2023-03-11T06:51:03.277Z,1.30
2023-03-11T06:53:30.628Z,1.75
2023-03-11T06:56:09.384Z,1.33
2023-03-11T06:58:37.830Z,1.38
2023-03-11T07:01:16.350Z,1.75
2023-03-11T07:03:43.522Z,1.38
2023-03-11T07:06:16.043Z,1.20
2023-03-11T07:08:42.863Z,1.00
2023-03-11T07:11:12.981Z,1.80
2023-03-11T07:13:39.894Z,1.60
2023-03-11T07:16:10.378Z,1.00
2023-03-11T07:18:37.133Z,1.08
2023-03-11T07:21:06.369Z,1.08
2023-03-11T07:23:33.497Z,1.50
2023-03-11T07:26:00.245Z,1.27
2023-03-11T07:28:28.231Z,1.35
2023-03-11T07:30:55.421Z,1.20
2023-03-11T07:33:24.178Z,1.10
2023-03-11T07:35:51.416Z,1.33
2023-03-11T07:38:19.787Z,1.02
2023-03-11T07:40:46.739Z,1.20
2023-03-11T07:43:13.634Z,1.48
2023-03-11T07:45:40.477Z,1.60
2023-03-11T07:48:07.286Z,1.40
2023-03-11T07:50:34.014Z,1.58
2023-03-11T07:53:00.876Z,1.25
2023-03-11T07:55:27.578Z,1.50
2023-03-11T07:57:54.502Z,1.77
2023-03-11T08:00:21.374Z,1.35
2023-03-11T08:02:48.159Z,2.00
2023-03-11T08:05:14.955Z,1.75
2023-03-11T08:07:41.662Z,1.10
2023-03-11T08:10:08.918Z,1.35
2023-03-11T08:12:35.590Z,1.10
2023-03-11T08:15:02.255Z,1.40
2023-03-11T08:17:28.999Z,1.20
2023-03-11T08:19:55.623Z,1.20
2023-03-11T08:22:22.241Z,0.90
2023-03-11T08:24:53.005Z,1.30
2023-03-11T08:27:19.741Z,0.93
2023-03-11T08:29:46.420Z,1.13
2023-03-11T08:32:13.089Z,1.00
2023-03-11T08:34:39.907Z,1.10
2023-03-11T08:37:07.041Z,1.13
2023-03-11T08:39:33.685Z,0.70
2023-03-11T08:42:00.565Z,1.02
2023-03-11T08:44:27.339Z,0.80
2023-03-11T08:46:54.263Z,1.00
2023-03-11T08:49:20.997Z,0.70
2023-03-11T08:51:47.737Z,1.17
2023-03-11T08:54:14.420Z,0.90
2023-03-11T08:56:41.169Z,0.77
2023-03-11T08:59:08.587Z,1.02
2023-03-11T09:01:35.323Z,1.08
2023-03-11T09:04:02.116Z,0.93
2023-03-11T09:06:30.331Z,0.80
2023-03-11T09:08:57.188Z,0.88
2023-03-11T09:11:24.011Z,0.73
2023-03-11T09:13:51.438Z,1.05
2023-03-11T09:16:21.291Z,0.93
2023-03-11T09:18:47.988Z,1.20
2023-03-11T09:21:14.822Z,0.60
2023-03-11T09:23:44.207Z,0.90
2023-03-11T09:26:12.169Z,0.52
2023-03-11T09:28:39.720Z,0.75
2023-03-11T09:31:06.858Z,0.73
2023-03-11T09:33:38.667Z,0.70
2023-03-11T09:36:06.095Z,0.93
2023-03-11T09:38:33.168Z,0.80
2023-03-11T09:41:19.992Z,0.93
2023-03-11T09:44:08.397Z,0.60
2023-03-11T09:46:56.719Z,0.50
2023-03-11T09:49:58.367Z,0.82
2023-03-11T09:52:32.794Z,0.80
2023-03-11T09:55:01.024Z,0.70
2023-03-11T09:57:34.669Z,0.80
2023-03-11T10:00:04.450Z,0.50
2023-03-11T10:02:32.531Z,0.88
2023-03-11T10:05:02.570Z,0.50
2023-03-11T10:07:38.101Z,0.70
2023-03-11T10:10:05.781Z,0.88
2023-03-11T10:12:51.398Z,0.88
2023-03-11T10:15:25.123Z,0.93
2023-03-11T10:18:10.825Z,0.57
2023-03-11T10:21:13.165Z,1.10
2023-03-11T10:24:08.234Z,0.70
2023-03-11T10:26:43.399Z,1.27
2023-03-11T10:29:27.477Z,0.63
2023-03-11T10:32:15.256Z,0.63
2023-03-11T10:34:56.860Z,0.75
2023-03-11T10:37:48.411Z,0.73
2023-03-11T10:40:39.953Z,0.65
2023-03-11T10:43:17.561Z,0.80
2023-03-11T10:45:48.365Z,0.90
2023-03-11T10:48:17.253Z,0.90
2023-03-11T10:51:03.232Z,0.55
2023-03-11T10:53:30.605Z,1.00
2023-03-11T10:55:59.412Z,0.57
2023-03-11T10:58:30.821Z,0.60
2023-03-11T11:01:01.755Z,0.60
2023-03-11T11:03:29.234Z,0.77
2023-03-11T11:06:26.571Z,0.80
2023-03-11T11:09:20.503Z,0.90
2023-03-11T11:12:02.736Z,0.60
2023-03-11T11:14:50.194Z,0.73
2023-03-11T11:17:37.101Z,0.75
2023-03-11T11:20:13.498Z,1.05
2023-03-11T11:23:08.517Z,0.95
2023-03-11T11:25:42.715Z,1.27
2023-03-11T11:28:18.765Z,1.10
2023-03-11T11:31:03.921Z,1.60
2023-03-11T11:33:50.370Z,1.50
2023-03-11T11:36:20.159Z,1.23
2023-03-11T11:38:46.832Z,0.90
2023-03-11T11:41:18.322Z,1.52
2023-03-11T11:44:03.618Z,1.23
2023-03-11T11:47:20.075Z,0.88
2023-03-11T11:49:56.829Z,0.70
2023-03-11T11:52:32.910Z,0.75
2023-03-11T11:55:06.874Z,0.40
2023-03-11T11:57:34.101Z,1.00
2023-03-11T12:00:05.830Z,0.60
2023-03-11T12:02:51.006Z,0.30
2023-03-11T12:05:25.933Z,0.60
2023-03-11T12:08:08.437Z,0.80
2023-03-11T12:10:52.809Z,0.75
2023-03-11T12:13:46.475Z,0.77
2023-03-11T12:16:34.250Z,0.90
2023-03-11T12:19:10.258Z,0.63
2023-03-11T12:21:57.613Z,0.60
2023-03-11T12:25:09.944Z,0.75
2023-03-11T12:27:50.338Z,0.50
2023-03-11T12:30:28.654Z,0.75
2023-03-11T12:33:03.233Z,0.70
2023-03-11T12:35:32.749Z,0.80
2023-03-11T12:38:20.916Z,0.65
2023-03-11T12:40:47.772Z,0.50
2023-03-11T12:43:35.615Z,0.50
2023-03-11T12:46:07.235Z,0.50
2023-03-11T12:48:43.578Z,0.50
2023-03-11T12:51:37.440Z,0.63
2023-03-11T12:54:22.451Z,0.50
2023-03-11T12:56:57.579Z,0.63
2023-03-11T13:00:00.020Z,0.68
2023-03-11T13:02:53.108Z,0.47
2023-03-11T13:05:37.946Z,0.52
2023-03-11T13:08:14.496Z,0.40
2023-03-11T13:10:42.778Z,0.70
2023-03-11T13:13:35.254Z,0.50
2023-03-11T13:16:24.784Z,0.75
2023-03-11T13:18:54.204Z,0.70
2023-03-11T13:21:30.060Z,0.60
2023-03-11T13:24:18.642Z,0.77
2023-03-11T13:26:53.193Z,0.77
2023-03-11T13:29:47.904Z,1.00
2023-03-11T13:33:04.158Z,0.50
2023-03-11T13:36:07.213Z,0.70
2023-03-11T13:39:04.609Z,0.43
2023-03-11T13:41:35.041Z,0.88
2023-03-11T13:44:35.475Z,0.50
2023-03-11T13:47:15.639Z,0.60
2023-03-11T13:50:00.752Z,0.70
2023-03-11T13:52:37.948Z,1.70
2023-03-11T13:55:18.610Z,0.70
2023-03-11T13:57:56.452Z,0.82
2023-03-11T14:00:27.902Z,0.98
2023-03-11T14:02:58.575Z,0.52
2023-03-11T14:05:34.448Z,0.40
2023-03-11T14:08:28.988Z,0.80
2023-03-11T14:11:03.370Z,1.00
2023-03-11T14:13:33.246Z,1.00
2023-03-11T14:16:28.796Z,0.82
2023-03-11T14:19:08.550Z,0.60
2023-03-11T14:21:35.608Z,0.82
2023-03-11T14:24:03.297Z,1.30
2023-03-11T14:26:35.303Z,1.10
2023-03-11T14:29:08.662Z,0.90
2023-03-11T14:31:41.424Z,0.82
2023-03-11T14:36:44.590Z,0.63
2023-03-11T14:39:35.944Z,0.40
2023-03-11T14:42:19.033Z,0.65
2023-03-11T14:45:07.984Z,0.40
2023-03-11T14:47:47.113Z,0.77
2023-03-11T14:50:21.171Z,0.60
2023-03-11T14:53:12.316Z,0.40
2023-03-11T14:55:46.383Z,0.68
2023-03-11T14:58:40.354Z,0.70
2023-03-11T15:01:13.143Z,0.50
2023-03-11T15:03:46.423Z,0.60
2023-03-11T15:06:17.458Z,0.70
2023-03-11T15:08:45.729Z,0.90
2023-03-11T15:11:12.337Z,0.73
2023-03-11T15:13:41.662Z,0.88
2023-03-11T15:16:22.348Z,1.38
2023-03-11T15:18:49.128Z,0.50
2023-03-11T15:21:17.956Z,0.63
2023-03-11T15:23:51.002Z,0.70
2023-03-11T15:26:27.055Z,0.77
2023-03-11T15:29:15.474Z,0.50
2023-03-11T15:31:44.879Z,0.82
2023-03-11T15:34:25.140Z,0.52
2023-03-11T15:36:52.814Z,1.05
2023-03-11T15:39:30.594Z,0.47
2023-03-11T15:42:03.524Z,0.70
2023-03-11T15:44:35.942Z,0.93
2023-03-11T15:47:03.989Z,1.00
2023-03-11T15:49:31.013Z,0.70
2023-03-11T15:52:02.388Z,0.80
2023-03-11T15:54:29.308Z,0.88
2023-03-11T15:56:58.787Z,0.95
2023-03-11T15:59:25.987Z,1.08
2023-03-11T16:01:52.625Z,0.93
2023-03-11T16:04:20.888Z,0.82
2023-03-11T16:06:59.500Z,1.33
2023-03-11T16:09:34.247Z,0.90
2023-03-11T16:12:02.111Z,0.68
2023-03-11T16:14:28.744Z,1.08
2023-03-11T16:16:55.408Z,0.90
2023-03-11T16:19:22.102Z,0.60
2023-03-11T16:21:50.490Z,1.48
2023-03-11T16:24:20.785Z,0.85
2023-03-11T16:26:47.636Z,1.30
2023-03-11T16:29:19.323Z,1.30
2023-03-11T16:31:49.217Z,0.90
2023-03-11T16:34:15.876Z,0.70
2023-03-11T16:36:42.457Z,0.65
2023-03-11T16:39:09.517Z,1.10
2023-03-11T16:41:44.139Z,1.13
2023-03-11T16:44:11.558Z,0.80
2023-03-11T16:46:38.636Z,1.02
2023-03-11T16:49:05.472Z,1.20
2023-03-11T16:51:32.547Z,1.20
2023-03-11T16:53:59.309Z,1.15
2023-03-11T16:56:26.006Z,1.00
2023-03-11T16:58:52.641Z,1.50
2023-03-11T17:01:21.588Z,1.08
2023-03-11T17:03:51.937Z,1.65
2023-03-11T17:06:19.935Z,1.42
2023-03-11T17:08:49.252Z,1.40
2023-03-11T17:11:22.079Z,1.33
2023-03-11T17:13:50.062Z,2.25
2023-03-11T17:16:16.852Z,1.95
2023-03-11T17:18:43.609Z,1.60
2023-03-11T17:21:13.854Z,1.33
2023-03-11T17:23:41.312Z,1.17
2023-03-11T17:26:10.753Z,1.10
2023-03-11T17:28:40.138Z,1.15
2023-03-11T17:31:15.343Z,1.70
2023-03-11T17:33:42.731Z,2.80
2023-03-11T17:36:13.462Z,1.75
2023-03-11T17:38:40.179Z,2.10
2023-03-11T17:41:13.290Z,1.70
2023-03-11T17:43:40.137Z,2.03
2023-03-11T17:46:08.283Z,1.70
2023-03-11T17:48:34.977Z,1.63
2023-03-11T17:51:10.214Z,1.50
2023-03-11T17:53:38.698Z,2.53
2023-03-11T17:56:07.050Z,2.00
2023-03-11T17:58:34.425Z,2.50
2023-03-11T18:01:07.423Z,2.60
2023-03-11T18:03:34.388Z,2.47
2023-03-11T18:06:05.484Z,3.08
2023-03-11T18:08:33.672Z,2.85
2023-03-11T18:11:09.684Z,2.50
2023-03-11T18:13:37.711Z,2.50
2023-03-11T18:16:07.334Z,3.13
2023-03-11T18:18:35.487Z,3.55
2023-03-11T18:21:06.034Z,5.32
2023-03-11T18:23:33.597Z,4.68
2023-03-11T18:26:01.869Z,4.80
2023-03-11T18:28:29.012Z,4.63
2023-03-11T18:30:55.881Z,5.10
2023-03-11T18:33:24.079Z,6.40
2023-03-11T18:35:51.215Z,6.57
2023-03-11T18:38:17.924Z,5.38
2023-03-11T18:40:44.564Z,5.32
2023-03-11T18:43:14.050Z,5.60
2023-03-11T18:45:40.762Z,4.88
2023-03-11T18:48:07.453Z,5.13
2023-03-11T18:50:34.276Z,5.07
2023-03-11T18:53:01.658Z,4.30
2023-03-11T18:55:28.319Z,4.28
2023-03-11T18:57:54.957Z,4.40
2023-03-11T19:00:23.564Z,4.78
2023-03-11T19:02:51.933Z,4.35
2023-03-11T19:05:18.662Z,5.65
2023-03-11T19:07:45.342Z,4.45
2023-03-11T19:10:12.323Z,4.18
2023-03-11T19:12:39.931Z,4.80
2023-03-11T19:15:07.366Z,5.15
2023-03-11T19:17:34.013Z,4.90
2023-03-11T19:20:00.631Z,5.32
2023-03-11T19:24:54.178Z,5.97
2023-03-11T19:27:20.793Z,6.55
2023-03-11T19:32:13.981Z,7.07
2023-03-11T19:34:40.710Z,9.25
2023-03-11T19:37:07.355Z,9.27
2023-03-11T19:42:01.038Z,7.25
2023-03-11T19:44:27.798Z,6.97
2023-03-11T19:46:54.492Z,6.47
2023-03-11T19:49:21.937Z,5.40
2023-03-11T19:51:50.580Z,6.25
2023-03-11T19:54:18.124Z,6.63
2023-03-11T19:56:45.325Z,6.00
2023-03-11T19:59:12.327Z,7.05
2023-03-11T20:01:39.102Z,6.20
2023-03-11T20:04:06.162Z,6.55
2023-03-11T20:06:32.947Z,7.50
2023-03-11T20:08:59.809Z,6.80
2023-03-11T20:11:27.606Z,6.57
2023-03-11T20:13:54.436Z,6.13
2023-03-11T20:16:21.257Z,6.47
2023-03-11T20:18:51.452Z,6.90
2023-03-11T20:21:18.963Z,7.50
2023-03-11T20:23:45.713Z,6.18
2023-03-11T20:26:15.013Z,6.88
2023-03-11T20:28:42.077Z,7.60
2023-03-11T20:31:12.254Z,8.15
2023-03-11T20:33:39.056Z,8.50
2023-03-11T20:36:08.421Z,7.95
2023-03-11T20:38:35.616Z,11.48
2023-03-11T20:41:06.189Z,11.18
2023-03-11T20:43:33.750Z,11.38
2023-03-11T20:46:01.041Z,12.10
2023-03-11T20:48:28.130Z,11.73
2023-03-11T20:50:54.889Z,12.52
2023-03-11T20:53:21.724Z,13.05
2023-03-11T20:55:48.532Z,13.60
2023-03-11T20:58:15.208Z,13.90
2023-03-11T21:00:41.999Z,13.65
2023-03-11T21:03:08.870Z,15.82
2023-03-11T21:05:37.065Z,16.08
2023-03-11T21:08:04.826Z,14.90
2023-03-11T21:10:32.169Z,15.73
2023-03-11T21:12:58.999Z,13.88
2023-03-11T21:15:26.155Z,14.07
2023-03-11T21:17:52.913Z,12.98
2023-03-11T21:20:19.912Z,13.00
2023-03-11T21:22:46.681Z,13.20
2023-03-11T21:25:13.435Z,12.73
2023-03-11T21:27:40.189Z,11.55
2023-03-11T21:32:34.004Z,10.52
2023-03-11T21:35:01.512Z,10.70
2023-03-11T21:37:28.766Z,12.48
2023-03-11T21:39:55.699Z,18.08
2023-03-11T21:42:22.878Z,15.20
2023-03-11T21:44:51.292Z,12.98
2023-03-11T21:47:18.425Z,13.43
2023-03-11T21:49:45.239Z,11.45
2023-03-11T21:52:11.959Z,11.32
2023-03-11T21:57:05.334Z,10.68
2023-03-11T21:59:32.070Z,8.23
2023-03-11T22:02:02.640Z,7.63
2023-03-11T22:04:30.738Z,8.65
2023-03-11T22:06:57.669Z,8.32
2023-03-11T22:09:25.797Z,7.38
2023-03-11T22:11:52.762Z,7.43
2023-03-11T22:14:19.448Z,6.95
2023-03-11T22:19:12.924Z,5.95
2023-03-11T22:21:39.790Z,6.57
2023-03-11T22:24:06.605Z,6.53
2023-03-11T22:26:33.449Z,8.23
2023-03-11T22:29:01.866Z,8.15
2023-03-11T22:31:29.875Z,6.85
2023-03-11T22:33:57.291Z,7.75
2023-03-11T22:36:24.009Z,9.52
2023-03-11T22:41:19.243Z,7.60
2023-03-11T22:43:46.091Z,8.20
2023-03-11T22:46:18.694Z,8.32
2023-03-11T22:48:45.392Z,7.28
2023-03-11T22:53:39.571Z,6.93
2023-03-11T22:58:33.808Z,6.38
2023-03-11T23:03:27.781Z,6.43
2023-03-11T23:05:57.560Z,8.10
2023-03-11T23:08:24.243Z,8.82
2023-03-11T23:13:17.583Z,6.88
2023-03-11T23:15:45.977Z,8.38
2023-03-11T23:18:13.283Z,7.75
2023-03-11T23:20:41.722Z,7.32
2023-03-11T23:23:08.846Z,8.60
2023-03-11T23:25:35.994Z,6.93
2023-03-11T23:28:04.588Z,7.53
2023-03-11T23:30:31.948Z,7.97
2023-03-11T23:32:59.167Z,7.60
2023-03-11T23:35:25.960Z,7.53
2023-03-11T23:40:19.350Z,6.80
2023-03-11T23:45:12.611Z,5.78
2023-03-11T23:50:06.321Z,5.53
2023-03-11T23:52:33.340Z,6.13
2023-03-11T23:55:01.006Z,6.13
2023-03-11T23:57:27.761Z,5.40
